Atlantic Hawk — C6TY3 — position and weather

sailwx.info

Track history (hours):
 
Tides and Currents Weather Stations Pressure Air Temp Water Temp Dewpoint Dewpoint Depression Visibility Wind Speed Wind Dir Waves Ship Positions

Atlantic Hawk

Last reported at 2017-Nov-15 13:58 UTC. Time now 2017-Nov-23 18:14 UTC.
Position N 49°11' W 123°54'.
Warning: this ship's position is 8 days out of date.

Length 225 m; draft 7.2 m.

Type: Cargo ship. MMSI: 311834000.

Date/timePositionNaut miles runAvg speedWind from/ knotsBaromVisibWave heightAir tempDewpointWater temp
2017-Nov-15 13:58N 49°11' W 123°54'0 0.0
2017-Nov-15 06:04N 49°11' W 123°54'5 0.9
2017-Nov-15 00:55N 49°13' W 123°48'613.7
2017-Nov-15 00:30N 49°12' W 123°40'714.4
2017-Nov-15 00:00N 49°08' W 123°30'714.8
2017-Nov-14 23:30N 49°04' W 123°21'714.5
2017-Nov-14 23:00N 48°59' W 123°13'714.2
2017-Nov-14 22:30N 48°54' W 123°05'714.2
2017-Nov-14 22:00N 48°48' W 122°60'714.9
2017-Nov-14 21:30N 48°43' W 123°09'611.6
2017-Nov-14 21:00N 48°39' W 123°14'815.5
2017-Nov-14 20:30N 48°31' W 123°11'714.2
2017-Nov-14 20:00N 48°24' W 123°13'713.8
2017-Nov-14 19:30N 48°22' W 123°23'4 8.3
2017-Nov-14 19:00N 48°18' W 123°25'611.5
2017-Nov-14 18:30N 48°14' W 123°31'612.5
2017-Nov-14 18:00N 48°13' W 123°41'713.5
2017-Nov-14 17:30N 48°13' W 123°51'713.8
2017-Nov-14 17:00N 48°15' W 124°01'814.2
2017-Nov-14 16:28N 48°18' W 124°11'714.0
2017-Nov-14 16:00N 48°21' W 124°20'714.5
2017-Nov-14 15:30N 48°24' W 124°30'714.2
2017-Nov-14 15:00N 48°27' W 124°40'713.4
2017-Nov-14 14:30N 48°29' W 124°50'611.9
2017-Nov-14 14:00N 48°28' W 124°59'612.0
2017-Nov-14 13:30N 48°28' W 125°08'612.5
2017-Nov-14 13:00N 48°29' W 125°17'612.5
2017-Nov-14 12:30N 48°30' W 125°26'712.7
2017-Nov-14 11:58N 48°31' W 125°37'612.4
2017-Nov-14 11:30N 48°32' W 125°45'612.3
2017-Nov-14 11:00N 48°32' W 125°54'612.4
2017-Nov-14 10:29N 48°34' W 126°04'612.1
2017-Nov-14 10:00N 48°34' W 126°12'612.2
2017-Nov-14 09:29N 48°35' W 126°22'612.1
2017-Nov-14 08:58N 48°36' W 126°32'43512.1
2017-Nov-12 21:00N 49°36' W 137°30'   340 / 161009.0 5.4 8.0 6.0
2017-Nov-09 23:00N 52°42' W 160°36'28611.9 340 / 191033.0 5.4 7.0 5.0
2017-Nov-08 23:00N 51°30' W 168°06'61113.0 250 / 131033.0 5.4 9.0 7.0
2017-Nov-07 00:00N 49°06' E 176°24'   250 / 161029.1 5.4 7.0 5.0
Track history (hours):
 
Tides and Currents Weather Stations Pressure Air Temp Water Temp Dewpoint Dewpoint Depression Visibility Wind Speed Wind Dir Waves Ship Positions

Atlantic Hawk

Last reported at 2017-Nov-15 13:58 UTC. Time now 2017-Nov-23 18:14 UTC.
Position N 49°11' W 123°54'.
Warning: this ship's position is 8 days out of date.

Length 225 m; draft 7.2 m.

Type: Cargo ship. MMSI: 311834000.

Date/timePositionNaut miles runAvg speedWind from/ knotsBaromVisibWave heightAir tempDewpointWater temp
2017-Nov-15 13:58N 49°11' W 123°54'0 0.0
2017-Nov-15 06:04N 49°11' W 123°54'5 0.9
2017-Nov-15 00:55N 49°13' W 123°48'613.7
2017-Nov-15 00:30N 49°12' W 123°40'714.4
2017-Nov-15 00:00N 49°08' W 123°30'714.8
2017-Nov-14 23:30N 49°04' W 123°21'714.5
2017-Nov-14 23:00N 48°59' W 123°13'714.2
2017-Nov-14 22:30N 48°54' W 123°05'714.2
2017-Nov-14 22:00N 48°48' W 122°60'714.9
2017-Nov-14 21:30N 48°43' W 123°09'611.6
2017-Nov-14 21:00N 48°39' W 123°14'815.5
2017-Nov-14 20:30N 48°31' W 123°11'714.2
2017-Nov-14 20:00N 48°24' W 123°13'713.8
2017-Nov-14 19:30N 48°22' W 123°23'4 8.3
2017-Nov-14 19:00N 48°18' W 123°25'611.5
2017-Nov-14 18:30N 48°14' W 123°31'612.5
2017-Nov-14 18:00N 48°13' W 123°41'713.5
2017-Nov-14 17:30N 48°13' W 123°51'713.8
2017-Nov-14 17:00N 48°15' W 124°01'814.2
2017-Nov-14 16:28N 48°18' W 124°11'714.0
2017-Nov-14 16:00N 48°21' W 124°20'714.5
2017-Nov-14 15:30N 48°24' W 124°30'714.2
2017-Nov-14 15:00N 48°27' W 124°40'713.4
2017-Nov-14 14:30N 48°29' W 124°50'611.9
2017-Nov-14 14:00N 48°28' W 124°59'612.0
2017-Nov-14 13:30N 48°28' W 125°08'612.5
2017-Nov-14 13:00N 48°29' W 125°17'612.5
2017-Nov-14 12:30N 48°30' W 125°26'712.7
2017-Nov-14 11:58N 48°31' W 125°37'612.4
2017-Nov-14 11:30N 48°32' W 125°45'612.3
2017-Nov-14 11:00N 48°32' W 125°54'612.4
2017-Nov-14 10:29N 48°34' W 126°04'612.1
2017-Nov-14 10:00N 48°34' W 126°12'612.2
2017-Nov-14 09:29N 48°35' W 126°22'612.1
2017-Nov-14 08:58N 48°36' W 126°32'43512.1
2017-Nov-12 21:00N 49°36' W 137°30'   340 / 161009.0 5.4 8.0 6.0
2017-Nov-09 23:00N 52°42' W 160°36'28611.9 340 / 191033.0 5.4 7.0 5.0
2017-Nov-08 23:00N 51°30' W 168°06'61113.0 250 / 131033.0 5.4 9.0 7.0
2017-Nov-07 00:00N 49°06' E 176°24'   250 / 161029.1 5.4 7.0 5.0

Dump ship's entire track history